• Join FlightAware (Why Join?)
  • Login
  • US Flag 
12:14AM EDT


 

Airport Tracker/Info


-or-


 

Live Flight TrackerFlight Track Log ✈ TCF5868 ✈ 21-Apr-2012 ✈ KCHS - KLGA

Flight Track Log - Related Links

Times and Time Zones

All times are in EDT time to prevent confusion due to time zone crossing. See the TCF5868 flight status page for this flight to view local times or setup timezone preferences in your user account.

Time Position Orientation Groundspeed Altitude Reporting Facility
EDT Latitude Longitude Course Direction KTS MPH feet Rate Location/Type
08:32AM 33.0254 -79.9916 North  Level FlightAware Approximate
08:33AM 33.1039 -79.9864 17° North 305 351 7,200  Level Jacksonville Center
08:34AM 33.1867 -79.9564 14° North 320 368 10,100 2,460 Climbing Jacksonville Center
08:35AM 33.2778 -79.9286 13° North 320 368 12,200 1,920 Climbing Jacksonville Center
08:36AM 33.3814 -79.9003 13° North 347 399 14,000 2,040 Climbing Jacksonville Center
08:37AM 33.4914 -79.8692 14° North 379 436 16,300 2,280 Climbing Jacksonville Center
08:38AM 33.5950 -79.8381 13° North 407 468 18,600 2,160 Climbing Jacksonville Center
08:39AM 33.7111 -79.8067 15° North 418 481 20,700 1,980 Climbing Jacksonville Center
08:40AM 33.8269 -79.7700 12° North 423 487 22,600 1,740 Climbing Jacksonville Center
08:41AM 33.9472 -79.7383 14° North 435 501 24,200 1,500 Climbing Jacksonville Center
08:42AM 34.0714 -79.7011 13° North 440 506 25,600 1,260 Climbing Jacksonville Center
08:43AM 34.1978 -79.6664 North 453 521 26,800 1,140 Climbing Jacksonville Center
08:44AM 34.3353 -79.6514 North 458 527 27,900 900 Climbing Jacksonville Center
08:47AM 34.6461 -79.6311 North 483 556 30,000 840 Climbing Washington Center
08:48AM 34.7967 -79.6233 North 483 556 30,900 840 Climbing Washington Center
08:49AM 34.9325 -79.6125 North 483 556 31,800 840 Climbing Washington Center
08:50AM 35.0664 -79.6064 15° North 474 545 32,600 600 Climbing Washington Center
08:51AM 35.1969 -79.5647 43° Northeast 481 554 33,100 540 Climbing Washington Center
08:52AM 35.2989 -79.4500 43° Northeast 476 548 33,700 540 Climbing Washington Center
08:53AM 35.4028 -79.3328 43° Northeast 491 565 34,200 480 Climbing Washington Center
08:54AM 35.5044 -79.2150 43° Northeast 498 573 34,700 360 Climbing Washington Center
08:55AM 35.6039 -79.0994 43° Northeast 498 573 35,000 120 Climbing Washington Center
08:56AM 35.6944 -78.9961 43° Northeast 498 573 35,000  Level Washington Center
08:57AM 35.7958 -78.8775 43° Northeast 492 566 35,000  Level Washington Center
08:58AM 35.8972 -78.7611 42° Northeast 492 566 35,000  Level Washington Center
08:59AM 36.0089 -78.6347 42° Northeast 486 559 35,000  Level Washington Center
09:00AM 36.1097 -78.5231 43° Northeast 486 559 35,000  Level Washington Center
09:01AM 36.2106 -78.4083 38° Northeast 486 559 35,000  Level Washington Center
09:02AM 36.3172 -78.3039 38° Northeast 486 559 35,000  Level Washington Center
09:03AM 36.4261 -78.1992 38° Northeast 486 559 35,000  Level Washington Center
09:04AM 36.5306 -78.0992 38° Northeast 486 559 35,000  Level Washington Center
09:05AM 36.6389 -77.9942 37° Northeast 486 559 35,000  Level Washington Center
09:06AM 36.7517 -77.8886 37° Northeast 497 572 35,000  Level Washington Center
09:07AM 36.8600 -77.7856 37° Northeast 492 566 35,000  Level Washington Center
09:08AM 36.9681 -77.6844 38° Northeast 492 566 35,000  Level Washington Center
09:09AM 37.0783 -77.5781 37° Northeast 492 566 35,000  Level Washington Center
09:10AM 37.1886 -77.4742 37° Northeast 492 566 35,000  Level Washington Center
09:11AM 37.2986 -77.3697 38° Northeast 497 572 35,000  Level Washington Center
09:12AM 37.4086 -77.2625 37° Northeast 497 572 35,000  Level Washington Center
09:13AM 37.5206 -77.1578 38° Northeast 497 572 35,000  Level Washington Center
09:14AM 37.6306 -77.0497 39° Northeast 497 572 35,000  Level Washington Center
09:15AM 37.7339 -76.9442 38° Northeast 490 564 35,000  Level Washington Center
09:16AM 37.8456 -76.8356 38° Northeast 490 564 35,000  Level Washington Center
09:17AM 37.9531 -76.7294 37° Northeast 490 564 35,000  Level Washington Center
09:18AM 38.0625 -76.6231 38° Northeast 495 570 35,000  Level Washington Center
09:19AM 38.1697 -76.5161 37° Northeast 495 570 35,000  Level Washington Center
09:20AM 38.2767 -76.4117 36° Northeast 495 570 35,000  Level Washington Center
09:21AM 38.3900 -76.3069 36° Northeast 495 570 35,000  Level Washington Center
09:22AM 38.4906 -76.2125 34° Northeast 501 577 35,000 -300 Level Washington Center
09:23AM 38.6036 -76.1150 37° Northeast 496 571 34,500 -1,500 Descending Washington Center
09:24AM 38.7125 -76.0094 36° Northeast 491 565 32,000 -2,580 Descending Washington Center
09:25AM 38.8253 -75.9061 37° Northeast 496 571 29,400 -2,580 Descending Washington Center
09:26AM 38.9319 -75.8025 36° Northeast 496 571 27,000 -1,200 Descending Washington Center
09:27AM 39.0383 -75.7011 36° Northeast 484 557 27,000  Level Washington Center
09:28AM 39.1447 -75.6022 37° Northeast 479 551 27,000  Level Washington Center
09:29AM 39.2508 -75.5006 35° Northeast 479 551 27,000  Level Washington Center
09:30AM 39.3592 -75.4036 34° Northeast 473 544 27,000 -780 Level Washington Center
09:31AM 39.4672 -75.3092 35° Northeast 473 544 25,500 -2,040 Descending Washington Center
09:32AM 39.5714 -75.2147 37° Northeast 468 539 23,000 -2,700 Descending Washington Center
09:33AM 39.6814 -75.1089 33° Northeast 456 525 20,300 -2,520 Descending Washington Center
09:34AM 39.7831 -75.0219 38° Northeast 444 511 18,100 -2,220 Descending Washington Center
09:36AM 39.9675 -74.8336 46° Northeast 427 491 13,600 -2,280 Descending Washington Center
09:37AM 40.0667 -74.7000 49° Northeast 399 459 10,800 -1,620 Descending New York TRACON
09:38AM 40.1333 -74.6000 53° Northeast 378 435 10,000 -420 Descending New York TRACON
09:39AM 40.2000 -74.4833 44° Northeast 379 436 10,000 -300 Level New York TRACON
09:40AM 40.2667 -74.4000 37° Northeast 319 367 9,400 -1,080 Descending New York TRACON
09:41AM 40.3333 -74.3333 52° Northeast 300 345 7,900 -1,200 Descending New York TRACON
09:42AM 40.3833 -74.2500 37° Northeast 291 335 7,000 -480 Descending New York TRACON
09:43AM 40.4500 -74.1833 52° Northeast 293 337 7,000 -300 Level New York TRACON
09:44AM 40.5000 -74.1000 24° Northeast 290 334 6,500 -1,200 Descending New York TRACON
09:45AM 40.5833 -74.0500 349° North 299 344 4,600 -1,260 Descending New York TRACON
09:46AM 40.6500 -74.0667 17° North 289 333 4,000 -300 Descending New York TRACON
09:47AM 40.7333 -74.0333 37° Northeast 266 306 4,000  Level New York TRACON
09:48AM 40.7833 -73.9833 37° Northeast 247 284 4,000  Level New York TRACON